Time;durP1;ratioP1;P1;durP2;ratioP2;P2;SDS_P1;SDS_P2;PMS_P1;PMS_P2;Temp;Humidity;BMP_temperature;BMP_pressure;BME280_temperature;BME280_humidity;BME280_pressure;Samples;Min_cycle;Max_cycle;Signal;HPM_P1;HPM_P2
2023/04/26 00:01:59;;;;;;;1.65;1.58;;;8.60;99.90;;;;;;5001139;28;20224;-70
2023/04/26 00:04:29;;;;;;;1.60;1.60;;;8.50;99.90;;;;;;5003305;28;20844;-71
2023/04/26 00:06:57;;;;;;;1.45;1.40;;;8.50;99.90;;;;;;4997903;28;20291;-71
2023/04/26 00:09:24;;;;;;;1.38;1.38;;;8.50;99.90;;;;;;4981077;28;20287;-70
2023/04/26 00:11:51;;;;;;;1.70;1.70;;;8.50;99.90;;;;;;5001386;28;20288;-72
2023/04/26 00:14:18;;;;;;;1.52;1.52;;;8.50;99.90;;;;;;4988172;28;20225;-71
2023/04/26 00:16:45;;;;;;;1.40;1.40;;;8.40;99.90;;;;;;4996821;28;21047;-70
2023/04/26 00:19:12;;;;;;;1.33;1.33;;;8.40;99.90;;;;;;5000181;28;20753;-71
2023/04/26 00:21:41;;;;;;;1.42;1.42;;;8.40;99.90;;;;;;4997718;28;20278;-70
2023/04/26 00:24:09;;;;;;;1.77;1.67;;;8.40;99.90;;;;;;4988312;28;20219;-70
2023/04/26 00:26:36;;;;;;;2.10;1.40;;;8.50;99.90;;;;;;5001201;28;20202;-70
2023/04/26 00:29:04;;;;;;;1.70;1.60;;;8.90;99.90;;;;;;4998603;28;20644;-70
2023/04/26 00:31:31;;;;;;;1.48;1.48;;;9.10;99.90;;;;;;4984643;28;20212;-70
2023/04/26 00:33:59;;;;;;;1.58;1.58;;;9.10;99.90;;;;;;4986906;28;20261;-70
2023/04/26 00:36:26;;;;;;;1.63;1.52;;;8.90;99.90;;;;;;5001294;28;20239;-70
2023/04/26 00:38:54;;;;;;;1.75;1.65;;;8.80;99.90;;;;;;5004240;28;20258;-70
2023/04/26 00:41:23;;;;;;;1.35;1.35;;;8.60;99.90;;;;;;5002051;28;20203;-70
2023/04/26 00:43:50;;;;;;;1.17;1.17;;;8.50;99.90;;;;;;4997118;28;20221;-70
2023/04/26 00:46:17;;;;;;;1.58;1.58;;;8.40;99.90;;;;;;4999071;28;20224;-70
2023/04/26 00:48:44;;;;;;;1.45;1.45;;;8.40;99.90;;;;;;5001109;28;20287;-70
2023/04/26 00:51:12;;;;;;;1.42;1.42;;;8.30;99.90;;;;;;5005649;28;20204;-70
2023/04/26 00:53:40;;;;;;;1.50;1.50;;;8.30;99.90;;;;;;4997338;28;21378;-70
2023/04/26 00:56:10;;;;;;;1.55;1.52;;;8.30;99.90;;;;;;5001124;28;20240;-70
2023/04/26 00:58:37;;;;;;;1.50;1.50;;;8.40;99.90;;;;;;5002831;28;20251;-71
2023/04/26 01:01:06;;;;;;;1.23;1.23;;;8.40;99.90;;;;;;4996621;28;20208;-70
2023/04/26 01:03:33;;;;;;;1.50;1.50;;;8.30;99.90;;;;;;5000184;28;20228;-71
2023/04/26 01:06:00;;;;;;;1.27;1.27;;;8.30;99.90;;;;;;4997051;28;20259;-71
2023/04/26 01:08:27;;;;;;;1.40;1.40;;;8.30;99.90;;;;;;4986982;28;20291;-71
2023/04/26 01:10:55;;;;;;;1.60;1.60;;;8.30;99.90;;;;;;4998551;28;20314;-70
2023/04/26 01:13:24;;;;;;;1.27;1.20;;;8.20;99.90;;;;;;5000238;28;20223;-71
2023/04/26 01:15:53;;;;;;;1.70;1.70;;;8.30;99.90;;;;;;4999150;28;20220;-71
2023/04/26 01:18:20;;;;;;;1.50;1.50;;;8.30;99.90;;;;;;5000535;28;20266;-70
2023/04/26 01:20:48;;;;;;;1.55;1.55;;;8.30;99.90;;;;;;5000816;28;20240;-70
2023/04/26 01:23:17;;;;;;;1.70;1.70;;;8.30;99.90;;;;;;4999899;28;20224;-71
2023/04/26 01:25:44;;;;;;;1.70;1.60;;;8.30;99.90;;;;;;4981391;28;20792;-70
2023/04/26 01:28:11;;;;;;;1.60;1.60;;;8.30;99.90;;;;;;5003816;28;20295;-70
2023/04/26 01:30:38;;;;;;;1.77;1.67;;;8.30;99.90;;;;;;5000419;28;20232;-71
2023/04/26 01:33:05;;;;;;;1.42;1.42;;;8.20;99.90;;;;;;5004956;28;20315;-71
2023/04/26 01:35:32;;;;;;;1.48;1.48;;;8.20;99.90;;;;;;5002089;28;21918;-71
2023/04/26 01:37:59;;;;;;;1.52;1.52;;;8.20;99.90;;;;;;4984754;28;20210;-71
2023/04/26 01:40:28;;;;;;;1.50;1.45;;;8.10;99.90;;;;;;4997743;28;20212;-70
2023/04/26 01:42:55;;;;;;;1.42;1.42;;;8.10;99.90;;;;;;4997249;28;20305;-70
2023/04/26 01:45:22;;;;;;;1.60;1.60;;;8.10;99.90;;;;;;5004812;28;20200;-71
2023/04/26 01:47:49;;;;;;;1.30;1.30;;;8.10;99.90;;;;;;5001435;28;20263;-70
2023/04/26 01:50:16;;;;;;;1.38;1.38;;;8.00;99.90;;;;;;5001043;28;20200;-71
2023/04/26 01:52:43;;;;;;;1.40;1.40;;;8.00;99.90;;;;;;4997255;28;20631;-70
2023/04/26 01:55:10;;;;;;;1.42;1.42;;;7.90;99.90;;;;;;5000203;28;20275;-70
2023/04/26 01:57:39;;;;;;;1.33;1.33;;;8.00;99.90;;;;;;4984045;28;20752;-70
2023/04/26 02:00:08;;;;;;;1.63;1.63;;;7.90;99.90;;;;;;5000504;28;20428;-70
2023/04/26 02:02:35;;;;;;;1.42;1.42;;;7.90;99.90;;;;;;4995199;28;20217;-70
2023/04/26 02:05:02;;;;;;;1.40;1.40;;;7.90;99.90;;;;;;4994924;28;20209;-70
2023/04/26 02:07:29;;;;;;;1.50;1.50;;;7.90;99.90;;;;;;5001359;28;20291;-70
2023/04/26 02:09:56;;;;;;;2.10;2.00;;;7.80;99.90;;;;;;4999387;28;20674;-70
2023/04/26 02:12:24;;;;;;;1.35;1.35;;;7.70;99.90;;;;;;4999084;28;20228;-70
2023/04/26 02:14:52;;;;;;;1.50;1.50;;;7.70;99.90;;;;;;4999183;28;20650;-70
2023/04/26 02:17:21;;;;;;;1.42;1.42;;;7.70;99.90;;;;;;5002001;28;20278;-70
2023/04/26 02:19:48;;;;;;;1.45;1.45;;;7.70;99.90;;;;;;4999845;28;20204;-70
2023/04/26 02:22:16;;;;;;;1.60;1.60;;;7.60;99.90;;;;;;4996150;28;20252;-70
2023/04/26 02:24:43;;;;;;;1.50;1.50;;;7.60;99.90;;;;;;5000275;28;20302;-70
2023/04/26 02:27:11;;;;;;;1.38;1.38;;;7.60;99.90;;;;;;4999338;28;20310;-70
2023/04/26 02:29:38;;;;;;;1.60;1.52;;;7.50;99.90;;;;;;4998482;28;20243;-70
2023/04/26 02:32:07;;;;;;;1.80;1.70;;;7.50;99.90;;;;;;4998764;28;20936;-70
2023/04/26 02:34:34;;;;;;;1.98;1.88;;;7.50;99.90;;;;;;4999467;28;20200;-70
2023/04/26 02:37:01;;;;;;;1.80;1.70;;;7.50;99.90;;;;;;4997277;28;20240;-70
2023/04/26 02:39:28;;;;;;;1.58;1.58;;;7.50;99.90;;;;;;4998639;28;20295;-70
2023/04/26 02:41:56;;;;;;;1.30;1.30;;;7.50;99.90;;;;;;4995006;28;20275;-70
2023/04/26 02:44:23;;;;;;;1.30;1.30;;;7.50;99.90;;;;;;4996863;28;20324;-70
2023/04/26 02:46:50;;;;;;;1.42;1.42;;;7.40;99.90;;;;;;4999310;28;20307;-70
2023/04/26 02:49:18;;;;;;;1.30;1.30;;;7.40;99.90;;;;;;5000044;28;20687;-70
2023/04/26 02:51:45;;;;;;;1.52;1.52;;;7.40;99.90;;;;;;4999190;28;20235;-69
2023/04/26 02:54:13;;;;;;;1.50;1.50;;;7.30;99.90;;;;;;4996071;28;20819;-70
2023/04/26 02:56:40;;;;;;;1.73;1.70;;;7.30;99.90;;;;;;4994801;28;20315;-69
2023/04/26 02:59:07;;;;;;;1.67;1.60;;;7.30;99.90;;;;;;4989800;28;20197;-70
2023/04/26 03:01:34;;;;;;;1.30;1.30;;;7.30;99.90;;;;;;4999704;28;20206;-70
2023/04/26 03:04:01;;;;;;;1.10;1.10;;;7.30;99.90;;;;;;4998876;28;20315;-70
2023/04/26 03:06:29;;;;;;;2.35;1.70;;;7.30;99.90;;;;;;4997539;28;20200;-70
2023/04/26 03:08:56;;;;;;;1.75;1.67;;;7.30;99.90;;;;;;4996713;28;20213;-70
2023/04/26 03:11:23;;;;;;;1.48;1.48;;;7.30;99.90;;;;;;4999509;28;20200;-70
2023/04/26 03:13:50;;;;;;;1.50;1.50;;;7.30;99.90;;;;;;4983106;28;20219;-70
2023/04/26 03:16:19;;;;;;;1.38;1.38;;;7.30;99.90;;;;;;4996801;28;20245;-70
2023/04/26 03:18:46;;;;;;;1.67;1.67;;;7.30;99.90;;;;;;5001461;28;20662;-70
2023/04/26 03:21:13;;;;;;;1.60;1.60;;;7.30;99.90;;;;;;4990153;28;20238;-70
2023/04/26 03:23:42;;;;;;;1.55;1.55;;;7.30;99.90;;;;;;5000654;28;20252;-70
2023/04/26 03:26:09;;;;;;;1.50;1.50;;;7.30;99.90;;;;;;5005038;28;20200;-69
2023/04/26 03:28:36;;;;;;;1.40;1.40;;;7.20;99.90;;;;;;5007502;28;20267;-70
2023/04/26 03:31:03;;;;;;;1.52;1.52;;;7.20;99.90;;;;;;5000881;28;20232;-70
2023/04/26 03:33:30;;;;;;;1.65;1.58;;;7.20;99.90;;;;;;5004214;28;20306;-70
2023/04/26 03:35:58;;;;;;;1.38;1.38;;;7.20;99.90;;;;;;5004777;28;20307;-70
2023/04/26 03:38:25;;;;;;;1.65;1.65;;;7.10;99.90;;;;;;4999436;28;20721;-70
2023/04/26 03:40:53;;;;;;;1.58;1.58;;;7.10;99.90;;;;;;4998812;28;20606;-69
2023/04/26 03:43:20;;;;;;;1.30;1.30;;;7.10;99.90;;;;;;5005291;28;20250;-69
2023/04/26 03:45:49;;;;;;;1.70;1.70;;;7.10;99.90;;;;;;5003446;28;20300;-70
2023/04/26 03:48:17;;;;;;;1.10;1.10;;;7.10;99.90;;;;;;5004849;28;20204;-70
2023/04/26 03:50:45;;;;;;;1.48;1.48;;;7.00;99.90;;;;;;5000977;28;20261;-70
2023/04/26 03:53:12;;;;;;;1.80;1.80;;;7.00;99.90;;;;;;5005936;28;21056;-70
2023/04/26 03:55:39;;;;;;;2.67;1.63;;;6.90;99.90;;;;;;4998735;28;20292;-70
2023/04/26 03:58:07;;;;;;;1.33;1.33;;;6.80;99.90;;;;;;4998779;28;20295;-70
2023/04/26 04:00:34;;;;;;;1.60;1.60;;;6.70;99.90;;;;;;5002732;28;20327;-70
2023/04/26 04:03:02;;;;;;;1.80;1.70;;;6.70;99.90;;;;;;5002283;28;20857;-70
2023/04/26 04:05:29;;;;;;;1.60;1.60;;;6.70;99.90;;;;;;5000612;28;20267;-70
2023/04/26 04:07:56;;;;;;;1.90;1.80;;;6.70;99.90;;;;;;5002025;28;20228;-70
2023/04/26 04:10:23;;;;;;;1.95;1.85;;;6.70;99.90;;;;;;5003754;28;20224;-69
2023/04/26 04:12:51;;;;;;;1.58;1.48;;;6.70;99.90;;;;;;5000178;28;20370;-69
2023/04/26 04:15:20;;;;;;;1.48;1.48;;;6.70;99.90;;;;;;5006819;28;20283;-69
2023/04/26 04:17:47;;;;;;;1.70;1.70;;;6.70;99.90;;;;;;4999498;28;20340;-70
2023/04/26 04:20:15;;;;;;;1.88;1.77;;;6.70;99.90;;;;;;4981383;28;20288;-70
2023/04/26 04:22:42;;;;;;;2.10;2.00;;;6.60;99.90;;;;;;5003097;28;20227;-70
2023/04/26 04:25:10;;;;;;;1.70;1.70;;;6.60;99.90;;;;;;4986809;28;20201;-70
2023/04/26 04:27:37;;;;;;;1.90;1.80;;;6.60;99.90;;;;;;4998346;28;20227;-70
2023/04/26 04:30:06;;;;;;;2.40;2.20;;;6.70;99.90;;;;;;4999052;28;20296;-70
2023/04/26 04:32:34;;;;;;;2.50;2.40;;;6.70;99.90;;;;;;4991850;28;20220;-70
2023/04/26 04:35:02;;;;;;;2.45;2.35;;;6.80;99.90;;;;;;4999788;28;20205;-70
2023/04/26 04:37:31;;;;;;;1.70;1.70;;;6.70;99.90;;;;;;4984201;28;20220;-70
2023/04/26 04:39:59;;;;;;;1.80;1.70;;;6.70;99.90;;;;;;5003733;28;20211;-70
2023/04/26 04:42:27;;;;;;;1.55;1.55;;;6.70;99.90;;;;;;4984859;28;20231;-70
2023/04/26 04:44:55;;;;;;;1.60;1.60;;;6.70;99.90;;;;;;4997796;28;20197;-70
2023/04/26 04:47:22;;;;;;;1.73;1.58;;;6.70;99.90;;;;;;5000602;28;20204;-70
2023/04/26 04:49:51;;;;;;;2.30;2.20;;;6.70;99.90;;;;;;4984784;28;20204;-70
2023/04/26 04:52:20;;;;;;;1.48;1.48;;;6.70;99.90;;;;;;4999615;28;20242;-70
2023/04/26 04:54:47;;;;;;;1.27;1.27;;;6.80;99.90;;;;;;5002760;28;20282;-70
2023/04/26 04:57:15;;;;;;;1.73;1.63;;;6.90;99.90;;;;;;4999233;28;20298;-70
2023/04/26 04:59:42;;;;;;;1.75;1.65;;;7.10;99.90;;;;;;4999746;28;20282;-70
2023/04/26 05:02:09;;;;;;;2.08;1.98;;;7.40;99.90;;;;;;5004310;28;20916;-70
2023/04/26 05:04:37;;;;;;;2.10;2.00;;;7.80;99.90;;;;;;4984598;28;20220;-70
2023/04/26 05:07:05;;;;;;;2.10;1.92;;;8.10;99.90;;;;;;4997093;28;20344;-70
2023/04/26 05:09:32;;;;;;;2.70;2.00;;;8.40;99.90;;;;;;4996984;28;20245;-70
2023/04/26 05:11:59;;;;;;;3.83;3.42;;;8.80;99.90;;;;;;5000778;28;20850;-70
2023/04/26 05:14:26;;;;;;;3.88;3.38;;;9.10;99.90;;;;;;5000377;28;20204;-71
2023/04/26 05:16:53;;;;;;;3.13;2.70;;;9.40;99.90;;;;;;5000550;28;20220;-70
2023/04/26 05:19:20;;;;;;;2.50;2.30;;;9.70;99.90;;;;;;4998576;28;20880;-71
2023/04/26 05:21:47;;;;;;;3.40;1.80;;;9.80;99.90;;;;;;4998850;28;20295;-70
2023/04/26 05:24:16;;;;;;;1.73;1.63;;;9.90;99.90;;;;;;4994213;28;20306;-71
2023/04/26 05:26:43;;;;;;;1.63;1.52;;;10.00;99.90;;;;;;4995007;28;20196;-71
2023/04/26 05:29:10;;;;;;;1.70;1.60;;;10.20;99.90;;;;;;4998121;28;20323;-71
2023/04/26 05:31:37;;;;;;;3.30;1.60;;;10.30;99.90;;;;;;5002534;28;20243;-71
2023/04/26 05:34:04;;;;;;;1.85;1.75;;;10.50;99.90;;;;;;5001680;28;20311;-71
2023/04/26 05:36:31;;;;;;;1.33;1.33;;;10.50;99.90;;;;;;4984368;28;20228;-71
2023/04/26 05:38:59;;;;;;;1.23;1.23;;;10.50;99.90;;;;;;4984422;28;20200;-70
2023/04/26 05:41:27;;;;;;;2.22;2.13;;;10.60;99.90;;;;;;4985917;28;20234;-70
2023/04/26 05:43:54;;;;;;;2.20;2.00;;;10.80;99.90;;;;;;5002460;28;20307;-70
2023/04/26 05:46:21;;;;;;;2.40;2.20;;;10.90;99.90;;;;;;5000575;28;20710;-70
2023/04/26 05:48:49;;;;;;;2.40;2.20;;;11.00;99.90;;;;;;5007671;28;20220;-71
2023/04/26 05:51:16;;;;;;;1.70;1.60;;;11.10;99.90;;;;;;5010163;28;20203;-71
2023/04/26 05:53:43;;;;;;;1.70;1.60;;;11.00;99.90;;;;;;4993939;28;20252;-70
2023/04/26 05:56:10;;;;;;;1.80;1.70;;;11.10;99.90;;;;;;4995070;28;20296;-70
2023/04/26 05:58:38;;;;;;;1.30;1.30;;;11.20;99.90;;;;;;4978185;28;20256;-71
2023/04/26 06:01:06;;;;;;;1.50;1.50;;;11.20;99.90;;;;;;4995732;28;20299;-70
2023/04/26 06:03:33;;;;;;;1.15;1.15;;;11.30;99.90;;;;;;4994044;28;20223;-71
2023/04/26 06:06:00;;;;;;;1.45;1.45;;;11.30;99.90;;;;;;4995089;28;20296;-70
2023/04/26 06:08:27;;;;;;;1.50;1.40;;;11.40;99.90;;;;;;4994987;28;20283;-71
2023/04/26 06:10:54;;;;;;;1.02;1.02;;;11.60;99.90;;;;;;4994933;28;20201;-71
2023/04/26 06:13:21;;;;;;;1.60;1.50;;;11.90;99.90;;;;;;4993416;28;20318;-70
2023/04/26 06:15:50;;;;;;;1.42;1.42;;;12.20;99.90;;;;;;4995070;28;20296;-70
2023/04/26 06:18:17;;;;;;;1.80;1.70;;;12.50;99.90;;;;;;4982622;28;20295;-70
2023/04/26 06:20:47;;;;;;;1.70;1.60;;;12.60;99.90;;;;;;4996239;28;20208;-70
2023/04/26 06:23:14;;;;;;;1.20;1.20;;;12.70;99.90;;;;;;4995367;28;20223;-70
2023/04/26 06:25:44;;;;;;;1.48;1.38;;;12.70;99.90;;;;;;4994473;28;20295;-71
2023/04/26 06:28:12;;;;;;;1.10;1.10;;;12.70;99.90;;;;;;4994332;28;20610;-70
2023/04/26 06:30:39;;;;;;;1.40;1.30;;;12.80;99.90;;;;;;4977305;28;20296;-70
2023/04/26 06:33:07;;;;;;;1.48;1.38;;;12.90;99.90;;;;;;4976660;28;20224;-71
2023/04/26 06:35:39;;;;;;;1.10;1.10;;;13.00;99.90;;;;;;4978720;28;20287;-70
2023/04/26 06:38:06;;;;;;;1.55;1.45;;;13.00;99.90;;;;;;4997484;28;20728;-70
2023/04/26 06:40:35;;;;;;;1.58;1.30;;;12.80;99.90;;;;;;4996920;28;20227;-71
2023/04/26 06:43:03;;;;;;;2.60;1.10;;;12.70;99.90;;;;;;5002061;28;20737;-71
2023/04/26 06:45:31;;;;;;;2.42;1.60;;;12.70;99.90;;;;;;4976814;28;20228;-71
2023/04/26 06:47:59;;;;;;;2.05;1.35;;;12.80;99.90;;;;;;4975591;28;20205;-71
2023/04/26 06:50:28;;;;;;;1.20;1.10;;;12.90;99.90;;;;;;4973509;28;20256;-70
2023/04/26 06:52:55;;;;;;;2.30;1.23;;;13.10;99.90;;;;;;4994371;28;20318;-71
2023/04/26 06:55:22;;;;;;;1.27;1.27;;;13.20;99.90;;;;;;4978786;28;20621;-72
2023/04/26 06:57:50;;;;;;;1.30;1.30;;;13.20;99.90;;;;;;4992780;28;20216;-71
2023/04/26 07:00:18;;;;;;;1.85;1.40;;;13.50;99.90;;;;;;4994167;28;20196;-71
2023/04/26 07:02:45;;;;;;;1.52;1.35;;;13.60;99.90;;;;;;4999017;28;20660;-70
2023/04/26 07:05:13;;;;;;;1.50;1.40;;;13.70;99.90;;;;;;4994622;28;20254;-71
2023/04/26 07:07:42;;;;;;;2.17;1.50;;;13.90;99.90;;;;;;4976478;28;20197;-70
2023/04/26 07:10:10;;;;;;;1.00;1.00;;;14.10;99.90;;;;;;4993781;28;20610;-70
2023/04/26 07:12:37;;;;;;;1.35;1.25;;;14.10;99.90;;;;;;4996344;28;20231;-70
2023/04/26 07:15:06;;;;;;;1.40;1.25;;;14.10;99.90;;;;;;4976657;28;20337;-70
2023/04/26 07:17:33;;;;;;;1.33;1.23;;;14.00;99.90;;;;;;4996273;28;20220;-71
2023/04/26 07:20:00;;;;;;;1.50;1.40;;;14.00;99.90;;;;;;4980014;28;20197;-70
2023/04/26 07:22:27;;;;;;;1.10;1.10;;;14.10;99.90;;;;;;4993457;28;20311;-71
2023/04/26 07:24:56;;;;;;;1.33;1.30;;;14.00;99.90;;;;;;4991740;28;20235;-71
2023/04/26 07:27:23;;;;;;;1.40;1.30;;;14.20;99.90;;;;;;4997169;28;20228;-73
2023/04/26 07:29:55;;;;;;;1.38;1.27;;;14.20;99.90;;;;;;4995987;28;20262;-71
2023/04/26 07:32:22;;;;;;;1.58;1.48;;;14.30;99.90;;;;;;4974898;28;20226;-71
2023/04/26 07:34:50;;;;;;;1.15;1.15;;;14.30;99.90;;;;;;4990523;28;20422;-71
2023/04/26 07:37:17;;;;;;;2.10;1.10;;;14.40;99.90;;;;;;4991019;28;20233;-71
2023/04/26 07:39:44;;;;;;;1.35;1.25;;;14.40;99.90;;;;;;4993204;28;20290;-71
2023/04/26 07:42:12;;;;;;;1.55;1.30;;;14.50;99.90;;;;;;4975145;28;20228;-71
2023/04/26 07:44:39;;;;;;;1.20;1.10;;;14.60;99.90;;;;;;4994408;28;20283;-71
2023/04/26 07:47:12;;;;;;;1.17;1.17;;;14.80;99.90;;;;;;4989466;28;20193;-71
2023/04/26 07:49:40;;;;;;;1.40;1.30;;;14.90;99.90;;;;;;4993045;28;20831;-71
2023/04/26 07:52:09;;;;;;;4.18;1.20;;;15.00;99.90;;;;;;4976847;28;20311;-71
2023/04/26 07:54:36;;;;;;;1.23;1.05;;;15.00;99.90;;;;;;4993954;28;20588;-70
2023/04/26 07:57:03;;;;;;;1.10;1.10;;;15.20;99.90;;;;;;4991501;28;20299;-71
2023/04/26 07:59:31;;;;;;;0.90;0.90;;;15.30;99.90;;;;;;4991616;28;20232;-71
2023/04/26 08:01:59;;;;;;;1.00;1.00;;;15.30;99.90;;;;;;4991442;28;20287;-70
2023/04/26 08:04:35;;;;;;;1.02;1.02;;;15.30;99.90;;;;;;4992819;28;20296;-70
2023/04/26 08:07:02;;;;;;;0.80;0.80;;;15.30;99.90;;;;;;4976991;28;20200;-70
2023/04/26 08:09:30;;;;;;;1.33;1.25;;;15.40;99.90;;;;;;4996079;28;20204;-72
2023/04/26 08:11:57;;;;;;;1.38;1.27;;;15.30;99.90;;;;;;4996610;28;20216;-72
2023/04/26 08:14:26;;;;;;;1.27;1.20;;;15.30;99.90;;;;;;5000136;28;20300;-72
2023/04/26 08:16:54;;;;;;;1.40;1.30;;;15.50;99.90;;;;;;4994867;28;20219;-74
2023/04/26 08:19:21;;;;;;;1.05;1.05;;;15.50;99.90;;;;;;4995468;28;20247;-72
2023/04/26 08:21:49;;;;;;;1.30;1.20;;;15.60;99.90;;;;;;4981233;28;20200;-73
2023/04/26 08:24:16;;;;;;;1.48;0.93;;;15.50;99.90;;;;;;4995792;28;20232;-72
2023/04/26 08:26:43;;;;;;;1.10;1.00;;;15.60;99.90;;;;;;4995540;28;20231;-71
2023/04/26 08:29:11;;;;;;;1.13;1.08;;;15.60;99.90;;;;;;4997679;28;20204;-73
2023/04/26 08:31:39;;;;;;;1.00;1.00;;;15.60;99.90;;;;;;4978492;28;20307;-71
2023/04/26 08:34:10;;;;;;;1.10;1.10;;;15.80;99.90;;;;;;4981742;28;20193;-71
2023/04/26 08:36:37;;;;;;;1.00;1.00;;;16.20;99.90;;;;;;4981961;28;20251;-71
2023/04/26 08:39:04;;;;;;;1.20;1.20;;;16.40;99.90;;;;;;4993028;28;20294;-72
2023/04/26 08:41:36;;;;;;;1.30;1.20;;;16.80;99.90;;;;;;4998399;28;20283;-72
2023/04/26 08:44:05;;;;;;;0.90;0.90;;;17.00;99.90;;;;;;4993613;28;20303;-72
2023/04/26 08:46:36;;;;;;;1.00;1.00;;;17.10;99.90;;;;;;4997165;28;20254;-72
2023/04/26 08:49:15;;;;;;;0.90;0.90;;;17.10;99.90;;;;;;4994269;28;20838;-72
2023/04/26 08:51:44;;;;;;;1.02;0.90;;;17.10;99.90;;;;;;4995867;28;20196;-72
2023/04/26 08:54:13;;;;;;;1.15;1.05;;;17.30;99.90;;;;;;4996954;28;20223;-71
2023/04/26 08:56:42;;;;;;;1.30;1.02;;;17.30;99.90;;;;;;4978134;28;20208;-72
2023/04/26 08:59:10;;;;;;;1.90;0.90;;;17.20;99.90;;;;;;4999125;28;20598;-72
2023/04/26 09:01:40;;;;;;;1.00;1.00;;;17.00;99.90;;;;;;4999303;28;20239;-71
2023/04/26 09:04:08;;;;;;;1.20;1.10;;;16.90;99.90;;;;;;4995518;28;20288;-72
2023/04/26 09:06:37;;;;;;;0.85;0.85;;;16.90;99.90;;;;;;4978914;28;20283;-72
2023/04/26 09:09:06;;;;;;;0.88;0.88;;;16.90;99.90;;;;;;4995228;28;20330;-71
2023/04/26 09:11:52;;;;;;;1.05;1.05;;;17.10;99.90;;;;;;4995651;28;20196;-72
2023/04/26 09:14:20;;;;;;;1.00;1.00;;;17.30;99.90;;;;;;4996664;28;20208;-70
2023/04/26 09:16:47;;;;;;;1.30;1.20;;;17.50;99.90;;;;;;4998953;28;20201;-71
2023/04/26 09:19:14;;;;;;;0.88;0.88;;;17.70;99.90;;;;;;4993955;28;20304;-72
2023/04/26 09:21:45;;;;;;;0.90;0.90;;;18.00;99.90;;;;;;4995559;28;20677;-71
2023/04/26 09:24:14;;;;;;;1.10;1.00;;;18.20;99.90;;;;;;4996660;28;20279;-70
2023/04/26 09:26:41;;;;;;;1.15;1.10;;;18.30;99.90;;;;;;5001344;28;20262;-70
2023/04/26 09:29:13;;;;;;;1.00;0.90;;;18.20;99.90;;;;;;4997158;28;21129;-70
2023/04/26 09:31:43;;;;;;;1.02;1.00;;;18.00;99.90;;;;;;4995813;28;20200;-70
2023/04/26 09:34:10;;;;;;;0.90;0.90;;;17.90;99.90;;;;;;4977274;28;20212;-71
2023/04/26 09:36:50;;;;;;;1.02;0.85;;;18.10;99.90;;;;;;4963787;28;20208;-70
2023/04/26 09:39:32;;;;;;;1.92;0.80;;;18.30;99.90;;;;;;4997231;28;20245;-71
2023/04/26 09:42:00;;;;;;;0.93;0.90;;;18.10;99.90;;;;;;4976095;28;20856;-72
2023/04/26 09:44:29;;;;;;;0.90;0.90;;;18.00;99.90;;;;;;4991519;28;20204;-71
2023/04/26 09:47:01;;;;;;;1.08;1.00;;;17.80;99.90;;;;;;4995877;28;20208;-71
2023/04/26 09:49:30;;;;;;;1.00;1.00;;;17.90;99.90;;;;;;4998421;28;20231;-70
2023/04/26 09:52:06;;;;;;;0.80;0.80;;;18.00;99.90;;;;;;4994348;28;20243;-72
2023/04/26 09:54:45;;;;;;;0.73;0.73;;;18.30;99.90;;;;;;4998099;28;20200;-73
2023/04/26 09:57:13;;;;;;;1.75;1.10;;;18.40;99.90;;;;;;4994057;28;20213;-71
2023/04/26 09:59:45;;;;;;;1.00;1.00;;;18.40;99.90;;;;;;4993586;28;20220;-72
2023/04/26 10:02:18;;;;;;;0.90;0.90;;;18.40;99.90;;;;;;4995811;28;20318;-72
2023/04/26 10:04:47;;;;;;;1.05;1.00;;;18.30;99.90;;;;;;4994419;28;20235;-72
2023/04/26 10:07:18;;;;;;;0.88;0.88;;;18.50;99.90;;;;;;4997761;28;20199;-72
2023/04/26 10:09:46;;;;;;;0.88;0.88;;;18.50;99.90;;;;;;4994068;28;20291;-71
2023/04/26 10:12:15;;;;;;;0.82;0.82;;;18.60;99.90;;;;;;4992376;28;21032;-72
2023/04/26 10:14:43;;;;;;;0.98;0.90;;;18.80;99.90;;;;;;4995385;28;20212;-71
2023/04/26 10:17:12;;;;;;;0.88;0.85;;;18.80;99.90;;;;;;4994672;28;20299;-71
2023/04/26 10:19:42;;;;;;;1.20;0.68;;;18.90;99.90;;;;;;4992375;28;20286;-71
2023/04/26 10:22:14;;;;;;;0.90;0.90;;;19.00;99.90;;;;;;4997648;28;20227;-70
2023/04/26 10:24:44;;;;;;;0.80;0.80;;;19.20;99.10;;;;;;4994362;28;20240;-72
2023/04/26 10:27:12;;;;;;;1.00;0.90;;;19.40;97.40;;;;;;4993730;28;20231;-71
2023/04/26 10:30:09;;;;;;;0.90;0.90;;;19.50;95.90;;;;;;4976297;28;20263;-71
2023/04/26 10:33:15;;;;;;;0.82;0.82;;;19.40;91.50;;;;;;4995604;28;20354;-71
2023/04/26 10:36:01;;;;;;;0.95;0.60;;;19.40;91.00;;;;;;4986499;28;20208;-73
2023/04/26 10:38:28;;;;;;;1.17;1.10;;;19.60;92.70;;;;;;4976279;28;20343;-73
2023/04/26 10:41:30;;;;;;;0.80;0.80;;;20.00;94.80;;;;;;4995740;28;20228;-71
2023/04/26 10:43:58;;;;;;;1.42;1.08;;;20.10;95.50;;;;;;4998992;28;20232;-71
2023/04/26 10:46:37;;;;;;;2.55;1.00;;;19.90;93.10;;;;;;4994755;28;20670;-71
2023/04/26 10:49:18;;;;;;;0.93;0.93;;;19.70;89.40;;;;;;4994653;28;20715;-71
2023/04/26 10:52:11;;;;;;;0.85;0.85;;;19.60;90.60;;;;;;4995428;28;20270;-71
2023/04/26 10:54:52;;;;;;;0.65;0.65;;;19.70;92.30;;;;;;4993911;28;20196;-71
2023/04/26 10:57:22;;;;;;;1.00;0.70;;;19.60;91.10;;;;;;4990585;28;20235;-72
2023/04/26 11:00:25;;;;;;;0.80;0.80;;;19.60;89.00;;;;;;4991133;28;20259;-71
2023/04/26 11:02:57;;;;;;;0.90;0.90;;;19.60;86.40;;;;;;4993977;28;20321;-72
2023/04/26 11:05:36;;;;;;;1.52;0.82;;;19.60;89.00;;;;;;4993351;28;20295;-72
2023/04/26 11:08:08;;;;;;;0.68;0.68;;;19.70;86.10;;;;;;4979481;28;20211;-71
2023/04/26 11:10:37;;;;;;;0.70;0.70;;;19.90;89.00;;;;;;4991219;28;20299;-71
2023/04/26 11:13:06;;;;;;;0.93;0.70;;;19.80;87.60;;;;;;4976941;28;20231;-71
2023/04/26 11:15:34;;;;;;;1.00;0.90;;;19.90;88.90;;;;;;4995297;28;20338;-71
2023/04/26 11:18:03;;;;;;;1.25;0.80;;;20.00;88.90;;;;;;4995017;28;20208;-71
2023/04/26 11:20:31;;;;;;;0.80;0.80;;;20.00;87.50;;;;;;4978798;28;20571;-72
2023/04/26 11:22:58;;;;;;;0.63;0.63;;;20.10;88.00;;;;;;4993118;28;20224;-70
2023/04/26 11:25:27;;;;;;;0.70;0.70;;;20.40;91.00;;;;;;4991764;28;20201;-70
2023/04/26 11:27:59;;;;;;;1.20;0.73;;;20.40;85.60;;;;;;4994333;28;20621;-70
2023/04/26 11:30:28;;;;;;;0.70;0.70;;;20.50;83.50;;;;;;4991272;28;20291;-70
2023/04/26 11:32:56;;;;;;;1.00;0.70;;;20.50;86.40;;;;;;4964136;28;20230;-70
2023/04/26 11:35:23;;;;;;;0.88;0.80;;;20.60;86.40;;;;;;4992863;28;20291;-70
2023/04/26 11:37:51;;;;;;;0.95;0.50;;;20.80;88.40;;;;;;4992066;28;20481;-70
2023/04/26 11:40:19;;;;;;;0.65;0.65;;;20.90;86.80;;;;;;4996294;28;20260;-70
2023/04/26 11:42:46;;;;;;;0.70;0.70;;;21.10;87.50;;;;;;4997504;28;20307;-70
2023/04/26 11:45:16;;;;;;;0.77;0.77;;;21.00;87.20;;;;;;4976782;28;20209;-71
2023/04/26 11:47:46;;;;;;;0.90;0.90;;;20.70;89.20;;;;;;4994712;28;20239;-70
2023/04/26 11:50:14;;;;;;;0.70;0.70;;;20.70;87.20;;;;;;4998762;28;20275;-70
2023/04/26 11:52:42;;;;;;;0.63;0.63;;;20.80;86.00;;;;;;4999592;28;20270;-70
2023/04/26 11:55:10;;;;;;;0.82;0.70;;;20.90;87.40;;;;;;4992595;28;20742;-70
2023/04/26 11:57:37;;;;;;;1.90;0.70;;;21.00;88.30;;;;;;4993524;28;20236;-70
2023/04/26 12:00:11;;;;;;;1.48;0.70;;;21.20;87.80;;;;;;4997657;28;20270;-70
2023/04/26 12:02:38;;;;;;;0.68;0.68;;;21.30;85.30;;;;;;4999867;28;20295;-70
2023/04/26 12:05:09;;;;;;;0.73;0.73;;;21.30;83.80;;;;;;4976296;28;20509;-70
2023/04/26 12:07:37;;;;;;;0.73;0.63;;;21.20;85.60;;;;;;4998787;28;20303;-70
2023/04/26 12:10:17;;;;;;;0.63;0.63;;;21.20;85.40;;;;;;4995222;28;20708;-70
2023/04/26 12:12:47;;;;;;;1.00;0.70;;;21.30;80.50;;;;;;4990419;28;20426;-71
2023/04/26 12:15:15;;;;;;;0.65;0.65;;;21.40;86.80;;;;;;4991747;28;20209;-70
2023/04/26 12:17:55;;;;;;;0.60;0.60;;;21.30;82.30;;;;;;4995083;28;20537;-71
2023/04/26 12:20:32;;;;;;;1.13;0.90;;;21.60;84.40;;;;;;4995370;28;20220;-70
2023/04/26 12:23:04;;;;;;;0.80;0.80;;;21.60;74.40;;;;;;4993700;28;20590;-71
2023/04/26 12:25:33;;;;;;;0.70;0.70;;;21.30;78.20;;;;;;4992269;28;20211;-71
2023/04/26 12:28:01;;;;;;;0.70;0.70;;;21.10;79.00;;;;;;4996305;28;20401;-70
2023/04/26 12:30:29;;;;;;;0.75;0.75;;;21.00;78.80;;;;;;4977517;28;20204;-70
2023/04/26 12:32:57;;;;;;;0.73;0.73;;;21.00;80.30;;;;;;4997674;28;20641;-70
2023/04/26 12:35:24;;;;;;;0.65;0.65;;;21.20;77.60;;;;;;4994966;28;20235;-70
2023/04/26 12:37:55;;;;;;;0.70;0.70;;;21.20;77.30;;;;;;4997100;28;20570;-71
2023/04/26 12:40:23;;;;;;;1.20;0.70;;;21.30;77.40;;;;;;4993479;28;20228;-71
2023/04/26 12:42:50;;;;;;;3.78;0.80;;;21.20;76.90;;;;;;4991905;28;20435;-71
2023/04/26 12:45:18;;;;;;;0.80;0.80;;;21.30;79.50;;;;;;4994013;28;20292;-70
2023/04/26 12:47:45;;;;;;;0.93;0.75;;;21.20;76.20;;;;;;4998285;28;20686;-71
2023/04/26 12:50:13;;;;;;;1.40;0.63;;;20.90;73.90;;;;;;4992052;28;20200;-71
2023/04/26 12:52:41;;;;;;;0.65;0.65;;;21.00;76.40;;;;;;4995287;28;20506;-71
2023/04/26 12:55:11;;;;;;;0.80;0.80;;;21.10;76.30;;;;;;4975305;28;20209;-70
2023/04/26 12:57:40;;;;;;;1.17;1.10;;;21.30;74.70;;;;;;4981561;28;20307;-71
2023/04/26 13:00:10;;;;;;;0.75;0.75;;;21.20;73.40;;;;;;4996320;28;20792;-70